createdAt,value
2019-05-18T00:00:10.037Z,22.33
2019-05-18T00:02:37.038Z,19.53
2019-05-18T00:05:04.518Z,24.27
2019-05-18T00:07:31.413Z,20.50
2019-05-18T00:09:58.205Z,19.20
2019-05-18T00:12:25.147Z,22.40
2019-05-18T00:14:52.074Z,23.17
2019-05-18T00:17:25.285Z,25.90
2019-05-18T00:19:47.613Z,22.33
2019-05-18T00:22:14.753Z,22.73
2019-05-18T00:24:41.550Z,27.57
2019-05-18T00:27:08.389Z,25.50
2019-05-18T00:29:35.190Z,25.50
2019-05-18T00:32:02.120Z,27.63
2019-05-18T00:34:29.051Z,26.30
2019-05-18T00:36:55.839Z,25.17
2019-05-18T00:39:22.657Z,29.37
2019-05-18T00:41:49.689Z,25.83
2019-05-18T00:44:16.525Z,28.97
2019-05-18T00:46:43.528Z,30.93
2019-05-18T00:49:10.484Z,26.83
2019-05-18T00:51:37.258Z,30.50
2019-05-18T00:54:04.211Z,26.87
2019-05-18T00:56:31.214Z,26.67
2019-05-18T00:58:58.028Z,33.37
2019-05-18T01:01:24.922Z,34.37
2019-05-18T01:03:51.734Z,31.43
2019-05-18T01:06:18.517Z,29.33
2019-05-18T01:08:45.565Z,30.33
2019-05-18T01:11:12.467Z,33.40
2019-05-18T01:13:39.268Z,33.33
2019-05-18T01:16:06.319Z,35.80
2019-05-18T01:18:33.207Z,31.37
2019-05-18T01:21:00.306Z,36.80
2019-05-18T01:23:27.146Z,36.53
2019-05-18T01:25:54.062Z,31.17
2019-05-18T01:28:20.978Z,32.77
2019-05-18T01:30:47.970Z,30.53
2019-05-18T01:33:14.792Z,33.33
2019-05-18T01:35:41.727Z,29.50
2019-05-18T01:38:08.755Z,30.23
2019-05-18T01:40:35.655Z,35.23
2019-05-18T01:43:02.590Z,37.40
2019-05-18T01:45:29.395Z,33.57
2019-05-18T01:47:56.186Z,32.47
2019-05-18T01:50:23.123Z,32.73
2019-05-18T01:52:50.186Z,30.67
2019-05-18T01:55:17.153Z,28.43
2019-05-18T01:57:43.981Z,33.87
2019-05-18T02:00:11.290Z,31.43
2019-05-18T02:02:38.250Z,27.97
2019-05-18T02:05:05.362Z,27.77
2019-05-18T02:07:32.167Z,28.87
2019-05-18T02:09:59.013Z,30.10
2019-05-18T02:12:25.835Z,27.10
2019-05-18T02:14:52.731Z,27.03
2019-05-18T02:17:19.893Z,26.30
2019-05-18T02:19:46.792Z,30.70
2019-05-18T02:22:13.626Z,27.93
2019-05-18T02:24:40.594Z,30.80
2019-05-18T02:27:07.521Z,28.67
2019-05-18T02:29:34.549Z,32.27
2019-05-18T02:32:01.553Z,30.03
2019-05-18T02:34:28.382Z,30.17
2019-05-18T02:36:55.275Z,31.50
2019-05-18T02:39:22.223Z,30.57
2019-05-18T02:41:49.235Z,37.23
2019-05-18T02:44:16.125Z,31.20
2019-05-18T02:46:43.186Z,39.47
2019-05-18T02:49:10.074Z,39.53
2019-05-18T02:51:37.051Z,32.03
2019-05-18T02:54:04.098Z,40.27
2019-05-18T02:56:31.027Z,42.40
2019-05-18T02:58:57.833Z,41.10
2019-05-18T03:01:24.837Z,40.07
2019-05-18T03:03:51.762Z,43.23
2019-05-18T03:06:18.764Z,54.23
2019-05-18T03:08:45.787Z,38.20
2019-05-18T03:11:12.886Z,49.77
2019-05-18T03:13:39.829Z,39.17
2019-05-18T03:16:06.723Z,45.27
2019-05-18T03:18:33.606Z,59.73
2019-05-18T03:21:00.690Z,53.53
2019-05-18T03:23:27.606Z,48.17
2019-05-18T03:25:54.396Z,52.83
2019-05-18T03:28:21.497Z,52.63
2019-05-18T03:30:48.441Z,57.07
2019-05-18T03:33:15.496Z,64.90
2019-05-18T03:35:42.545Z,65.77
2019-05-18T03:38:09.414Z,63.87
2019-05-18T03:40:36.216Z,80.47
2019-05-18T03:43:03.338Z,73.90
2019-05-18T03:45:30.374Z,73.93
2019-05-18T03:47:57.282Z,120.97
2019-05-18T03:50:24.202Z,90.60
2019-05-18T03:52:51.054Z,93.50
2019-05-18T03:55:17.951Z,95.53
2019-05-18T03:57:44.813Z,109.03
2019-05-18T04:00:11.812Z,95.17
2019-05-18T04:02:38.626Z,84.70
2019-05-18T04:05:06.093Z,65.73
2019-05-18T04:07:32.995Z,59.47
2019-05-18T04:09:59.782Z,79.63
2019-05-18T04:12:26.845Z,70.50
2019-05-18T04:14:53.825Z,55.67
2019-05-18T04:17:20.666Z,44.53
2019-05-18T04:19:47.746Z,53.50
2019-05-18T04:22:14.684Z,54.60
2019-05-18T04:24:41.622Z,58.83
2019-05-18T04:27:08.439Z,57.17
2019-05-18T04:29:35.306Z,68.00
2019-05-18T04:32:02.234Z,63.07
2019-05-18T04:34:29.035Z,51.30
2019-05-18T04:36:55.845Z,63.30
2019-05-18T04:39:22.714Z,54.10
2019-05-18T04:41:49.635Z,51.73
2019-05-18T04:44:16.438Z,51.63
2019-05-18T04:46:43.366Z,43.30
2019-05-18T04:49:10.242Z,48.97
2019-05-18T04:51:37.040Z,48.87
2019-05-18T04:54:04.076Z,52.23
2019-05-18T04:56:30.870Z,46.70
2019-05-18T04:58:57.659Z,48.70
2019-05-18T05:01:24.556Z,48.87
2019-05-18T05:03:51.575Z,48.30
2019-05-18T05:06:18.462Z,46.83
2019-05-18T05:08:45.298Z,47.70
2019-05-18T05:11:12.190Z,34.40
2019-05-18T05:13:38.991Z,41.07
2019-05-18T05:16:05.817Z,40.67
2019-05-18T05:18:32.750Z,42.07
2019-05-18T05:20:59.550Z,40.90
2019-05-18T05:23:26.391Z,40.37
2019-05-18T05:25:53.207Z,43.37
2019-05-18T05:28:20.022Z,32.27
2019-05-18T05:30:46.851Z,30.13
2019-05-18T05:33:13.689Z,25.63
2019-05-18T05:35:40.687Z,23.07
2019-05-18T05:38:07.518Z,24.23
2019-05-18T05:40:34.441Z,21.53
2019-05-18T05:43:01.322Z,21.57
2019-05-18T05:45:28.207Z,14.77
2019-05-18T05:47:54.999Z,16.17
2019-05-18T05:50:34.764Z,13.03
2019-05-18T05:52:50.696Z,14.73
2019-05-18T05:55:17.696Z,11.67
2019-05-18T05:57:44.567Z,12.73
2019-05-18T06:00:11.755Z,12.30
2019-05-18T06:02:38.655Z,9.67
2019-05-18T06:05:06.801Z,21.43
2019-05-18T06:07:33.853Z,13.43
2019-05-18T06:10:00.758Z,10.60
2019-05-18T06:12:27.563Z,9.00
2019-05-18T06:14:54.559Z,7.60
2019-05-18T06:17:21.597Z,8.20
2019-05-18T06:19:48.526Z,10.07
2019-05-18T06:22:15.495Z,8.10
2019-05-18T06:24:42.539Z,8.33
2019-05-18T06:27:09.339Z,9.00
2019-05-18T06:29:36.143Z,8.00
2019-05-18T06:32:03.256Z,8.67
2019-05-18T06:34:30.059Z,7.17
2019-05-18T06:36:56.866Z,6.70
2019-05-18T06:39:23.780Z,7.37
2019-05-18T06:41:50.678Z,7.33
2019-05-18T06:44:17.509Z,6.93
2019-05-18T06:46:44.341Z,6.60
2019-05-18T06:49:11.157Z,6.93
2019-05-18T06:51:57.934Z,6.90
2019-05-18T06:54:24.878Z,7.00
2019-05-18T06:56:52.591Z,7.37
2019-05-18T06:59:19.734Z,7.17
2019-05-18T07:01:46.548Z,6.97
2019-05-18T07:04:13.570Z,8.33
2019-05-18T07:06:40.398Z,6.40
2019-05-18T07:09:13.624Z,7.40
2019-05-18T07:11:36.720Z,6.60
2019-05-18T07:14:03.804Z,6.17
2019-05-18T07:16:30.734Z,6.83
2019-05-18T07:18:58.286Z,7.70
2019-05-18T07:21:25.374Z,7.20
2019-05-18T07:23:52.380Z,7.40
2019-05-18T07:26:19.222Z,7.07
2019-05-18T07:28:46.272Z,6.87
2019-05-18T07:31:13.206Z,7.63
2019-05-18T07:33:40.049Z,7.37
2019-05-18T07:36:07.099Z,6.73
2019-05-18T07:38:33.922Z,7.17
2019-05-18T07:41:00.802Z,6.83
2019-05-18T07:43:27.663Z,7.53
2019-05-18T07:45:54.651Z,6.93
2019-05-18T07:48:21.499Z,7.63
2019-05-18T07:50:48.300Z,6.30
2019-05-18T07:53:15.225Z,7.67
2019-05-18T07:55:42.086Z,7.00
2019-05-18T07:58:08.891Z,6.47
2019-05-18T08:00:35.714Z,6.73
2019-05-18T08:03:02.913Z,6.77
2019-05-18T08:05:30.015Z,5.50
2019-05-18T08:07:56.809Z,6.17
2019-05-18T08:10:34.615Z,6.33
2019-05-18T08:13:01.460Z,6.10
2019-05-18T08:15:28.693Z,5.83
2019-05-18T08:17:55.605Z,5.87
2019-05-18T08:20:22.509Z,5.67
2019-05-18T08:22:49.355Z,5.50
2019-05-18T08:25:16.273Z,5.50
2019-05-18T08:27:43.082Z,6.43
2019-05-18T08:30:10.611Z,4.93
2019-05-18T08:32:37.531Z,6.17
2019-05-18T08:35:04.588Z,5.67
2019-05-18T08:37:31.536Z,5.20
2019-05-18T08:39:58.358Z,5.23
2019-05-18T08:42:25.177Z,5.47
2019-05-18T08:44:52.222Z,5.90
2019-05-18T08:47:19.135Z,5.37
2019-05-18T08:49:46.199Z,6.47
2019-05-18T08:52:13.116Z,6.27
2019-05-18T08:54:40.059Z,5.47
2019-05-18T08:57:06.896Z,6.13
2019-05-18T08:59:33.730Z,5.37
2019-05-18T09:02:00.692Z,5.23
2019-05-18T09:04:27.655Z,5.43
2019-05-18T09:06:54.562Z,5.43
2019-05-18T09:09:21.506Z,5.70
2019-05-18T09:11:48.450Z,4.80
2019-05-18T09:14:15.362Z,4.87
2019-05-18T09:16:42.187Z,4.43
2019-05-18T09:19:09.245Z,4.77
2019-05-18T09:21:36.973Z,4.40
2019-05-18T09:24:04.106Z,4.97
2019-05-18T09:26:31.151Z,4.13
2019-05-18T09:28:58.210Z,4.73
2019-05-18T09:31:25.312Z,4.30
2019-05-18T09:33:52.146Z,4.57
2019-05-18T09:36:19.136Z,4.30
2019-05-18T09:38:46.336Z,5.00
2019-05-18T09:41:13.434Z,4.97
2019-05-18T09:43:40.469Z,4.30
2019-05-18T09:46:07.560Z,4.73
2019-05-18T09:48:34.864Z,5.67
2019-05-18T09:51:01.723Z,4.60
2019-05-18T09:53:30.180Z,4.60
2019-05-18T09:55:57.358Z,4.53
2019-05-18T09:58:24.208Z,4.50
2019-05-18T10:00:51.161Z,4.07
2019-05-18T10:03:18.218Z,4.30
2019-05-18T10:05:45.166Z,4.23
2019-05-18T10:08:12.147Z,4.50
2019-05-18T10:10:39.059Z,7.00
2019-05-18T10:13:06.018Z,4.60
2019-05-18T10:15:33.109Z,5.23
2019-05-18T10:18:00.027Z,4.77
2019-05-18T10:20:26.961Z,4.27
2019-05-18T10:23:11.430Z,5.50
2019-05-18T10:25:22.722Z,4.63
2019-05-18T10:27:49.689Z,4.53
2019-05-18T10:30:16.767Z,5.20
2019-05-18T10:32:43.687Z,5.07
2019-05-18T10:35:10.870Z,5.50
2019-05-18T10:37:37.839Z,5.77
2019-05-18T10:40:05.106Z,5.07
2019-05-18T10:42:32.038Z,5.10
2019-05-18T10:44:58.976Z,5.67
2019-05-18T10:47:25.786Z,5.57
2019-05-18T10:49:52.693Z,5.77
2019-05-18T10:52:19.510Z,5.53
2019-05-18T10:54:46.306Z,6.27
2019-05-18T10:57:13.414Z,5.63
2019-05-18T10:59:40.306Z,5.50
2019-05-18T11:02:07.289Z,6.83
2019-05-18T11:04:34.297Z,5.63
2019-05-18T11:07:01.342Z,6.47
2019-05-18T11:09:28.254Z,6.57
2019-05-18T11:11:55.041Z,5.23
2019-05-18T11:14:22.088Z,5.40
2019-05-18T11:16:49.075Z,7.30
2019-05-18T11:19:16.095Z,8.23
2019-05-18T11:21:43.042Z,9.90
2019-05-18T11:24:10.065Z,7.77
2019-05-18T11:26:37.054Z,6.03
2019-05-18T11:29:04.347Z,5.90
2019-05-18T11:31:31.381Z,5.30
2019-05-18T11:33:58.311Z,6.43
2019-05-18T11:36:25.259Z,5.50
2019-05-18T11:38:52.156Z,4.80
2019-05-18T11:41:19.055Z,4.80
2019-05-18T11:43:46.077Z,6.00
2019-05-18T11:46:13.089Z,5.53
2019-05-18T11:48:39.988Z,4.40
2019-05-18T11:51:07.247Z,5.03
2019-05-18T11:53:34.161Z,4.50
2019-05-18T11:56:01.065Z,5.20
2019-05-18T11:58:27.913Z,6.87
2019-05-18T12:00:55.039Z,7.20
2019-05-18T12:03:21.971Z,6.60
2019-05-18T12:05:49.042Z,7.80
2019-05-18T12:08:15.857Z,9.23
2019-05-18T12:10:42.670Z,9.03
2019-05-18T12:13:09.598Z,9.50
2019-05-18T12:15:36.614Z,9.50
2019-05-18T12:18:03.603Z,9.60
2019-05-18T12:20:30.534Z,9.90
2019-05-18T12:22:57.551Z,9.30
2019-05-18T12:25:24.609Z,9.33
2019-05-18T12:27:51.714Z,8.40
2019-05-18T12:30:19.137Z,9.23
2019-05-18T12:32:46.191Z,10.07
2019-05-18T12:35:13.432Z,9.37
2019-05-18T12:37:40.342Z,10.20
2019-05-18T12:40:09.423Z,9.23
2019-05-18T12:42:36.543Z,9.63
2019-05-18T12:45:04.320Z,12.00
2019-05-18T12:47:31.243Z,11.60
2019-05-18T12:49:58.079Z,11.63
2019-05-18T12:52:25.041Z,11.93
2019-05-18T12:54:51.975Z,12.20
2019-05-18T12:57:19.013Z,12.20
2019-05-18T12:59:45.879Z,9.93
2019-05-18T13:02:12.922Z,9.73
2019-05-18T13:04:41.817Z,8.83
2019-05-18T13:07:08.638Z,10.07
2019-05-18T13:09:35.667Z,10.90
2019-05-18T13:12:02.874Z,9.57
2019-05-18T13:14:29.921Z,9.50
2019-05-18T13:16:57.214Z,9.50
2019-05-18T13:19:24.325Z,12.73
2019-05-18T13:21:51.370Z,11.77
2019-05-18T13:24:18.173Z,11.47
2019-05-18T13:26:44.988Z,10.70
2019-05-18T13:29:12.169Z,11.47
2019-05-18T13:31:39.256Z,12.37
2019-05-18T13:34:06.144Z,12.00
2019-05-18T13:36:32.987Z,12.87
2019-05-18T13:38:59.788Z,12.63
2019-05-18T13:41:26.808Z,10.83
2019-05-18T13:43:53.750Z,11.40
2019-05-18T13:46:20.658Z,12.67
2019-05-18T13:48:47.734Z,8.90
2019-05-18T13:51:14.767Z,10.47
2019-05-18T13:53:41.693Z,8.67
2019-05-18T13:56:08.685Z,14.13
2019-05-18T13:58:35.604Z,9.33
2019-05-18T14:01:02.592Z,10.80
2019-05-18T14:03:29.665Z,7.50
2019-05-18T14:05:56.587Z,8.60
2019-05-18T14:08:23.550Z,9.10
2019-05-18T14:10:50.402Z,9.90
2019-05-18T14:13:17.360Z,11.60
2019-05-18T14:15:44.350Z,9.40
2019-05-18T14:18:11.238Z,7.17
2019-05-18T14:20:38.032Z,9.30
2019-05-18T14:23:04.921Z,7.77
2019-05-18T14:25:31.878Z,9.20
2019-05-18T14:27:59.089Z,9.10
2019-05-18T14:30:26.199Z,8.90
2019-05-18T14:32:53.240Z,8.93
2019-05-18T14:35:20.224Z,9.30
2019-05-18T14:37:47.057Z,8.50
2019-05-18T14:40:14.391Z,10.27
2019-05-18T14:42:41.566Z,12.63
2019-05-18T14:45:09.174Z,10.60
2019-05-18T14:47:36.152Z,11.00
2019-05-18T14:50:03.381Z,16.13
2019-05-18T14:52:30.279Z,9.37
2019-05-18T14:54:57.278Z,8.83
2019-05-18T14:57:25.796Z,11.57
2019-05-18T14:59:53.095Z,12.10
2019-05-18T15:02:20.216Z,10.53
2019-05-18T15:04:47.182Z,10.33
2019-05-18T15:07:14.229Z,9.87
2019-05-18T15:09:41.145Z,10.40
2019-05-18T15:12:08.101Z,12.83
2019-05-18T15:14:35.055Z,32.33
2019-05-18T15:17:02.056Z,43.00
2019-05-18T15:19:29.067Z,17.57
2019-05-18T15:21:55.870Z,30.47
2019-05-18T15:24:23.019Z,17.37
2019-05-18T15:26:49.945Z,12.60
2019-05-18T15:29:16.773Z,16.80
2019-05-18T15:31:43.585Z,35.37
2019-05-18T15:34:10.665Z,25.27
2019-05-18T15:36:37.647Z,38.97
2019-05-18T15:39:05.393Z,35.20
2019-05-18T15:41:32.341Z,23.40
2019-05-18T15:43:59.261Z,23.20
2019-05-18T15:46:26.062Z,19.37
2019-05-18T15:48:53.079Z,17.40
2019-05-18T15:51:20.255Z,17.47
2019-05-18T15:53:47.298Z,16.77
2019-05-18T15:56:14.320Z,16.43
2019-05-18T15:58:41.244Z,16.27
2019-05-18T16:01:08.196Z,17.90
2019-05-18T16:03:35.354Z,17.33
2019-05-18T16:06:02.400Z,16.17
2019-05-18T16:08:29.442Z,19.03
2019-05-18T16:10:57.262Z,17.67
2019-05-18T16:13:24.215Z,15.20
2019-05-18T16:15:51.233Z,16.37
2019-05-18T16:18:18.374Z,15.43
2019-05-18T16:20:45.404Z,15.43
2019-05-18T16:23:12.453Z,15.80
2019-05-18T16:25:39.428Z,14.97
2019-05-18T16:28:06.471Z,12.90
2019-05-18T16:30:33.393Z,15.23
2019-05-18T16:33:00.202Z,18.93
2019-05-18T16:35:27.012Z,14.63
2019-05-18T16:37:53.965Z,15.47
2019-05-18T16:40:20.959Z,29.30
2019-05-18T16:42:48.054Z,21.70
2019-05-18T16:45:15.309Z,17.30
2019-05-18T16:47:42.288Z,17.33
2019-05-18T16:50:10.078Z,17.40
2019-05-18T16:52:37.075Z,17.13
2019-05-18T16:55:04.408Z,17.60
2019-05-18T16:57:31.351Z,16.27
2019-05-18T16:59:58.171Z,18.27
2019-05-18T17:02:31.725Z,20.93
2019-05-18T17:04:53.903Z,19.13
2019-05-18T17:07:20.723Z,17.97
2019-05-18T17:09:47.756Z,20.77
2019-05-18T17:12:14.610Z,18.83
2019-05-18T17:14:41.506Z,19.23
2019-05-18T17:17:08.331Z,18.93
2019-05-18T17:19:35.239Z,18.43
2019-05-18T17:22:02.164Z,18.93
2019-05-18T17:24:28.941Z,20.20
2019-05-18T17:26:55.847Z,18.40
2019-05-18T17:29:22.807Z,17.20
2019-05-18T17:31:49.754Z,17.17
2019-05-18T17:34:16.734Z,18.83
2019-05-18T17:36:43.621Z,18.30
2019-05-18T17:39:10.443Z,19.10
2019-05-18T17:41:37.225Z,19.33
2019-05-18T17:44:04.240Z,18.97
2019-05-18T17:46:31.042Z,18.63
2019-05-18T17:48:57.994Z,18.43
2019-05-18T17:51:25.128Z,16.70
2019-05-18T17:53:52.122Z,19.17
2019-05-18T17:56:19.132Z,18.23
2019-05-18T17:58:46.002Z,17.50
2019-05-18T18:01:13.004Z,17.03
2019-05-18T18:03:39.993Z,18.80
2019-05-18T18:06:07.050Z,20.30
2019-05-18T18:08:34.010Z,17.20
2019-05-18T18:11:00.918Z,19.07
2019-05-18T18:13:27.741Z,18.70
2019-05-18T18:15:54.561Z,18.53
2019-05-18T18:18:21.556Z,19.20
2019-05-18T18:20:48.590Z,19.30
2019-05-18T18:23:15.590Z,20.10
2019-05-18T18:25:42.397Z,21.17
2019-05-18T18:28:09.297Z,20.63
2019-05-18T18:30:36.204Z,23.40
2019-05-18T18:33:03.226Z,21.07
2019-05-18T18:35:30.275Z,24.30
2019-05-18T18:37:57.310Z,23.67
2019-05-18T18:40:24.250Z,22.40
2019-05-18T18:42:51.073Z,20.93
2019-05-18T18:45:18.177Z,22.00
2019-05-18T18:47:45.155Z,22.20
2019-05-18T18:50:12.376Z,23.33
2019-05-18T18:52:39.709Z,26.63
2019-05-18T18:55:07.242Z,24.57
2019-05-18T18:57:41.064Z,24.20
2019-05-18T19:00:03.198Z,25.63
2019-05-18T19:02:30.137Z,22.30
2019-05-18T19:04:57.158Z,22.97
2019-05-18T19:07:24.192Z,24.27
2019-05-18T19:09:51.247Z,21.33
2019-05-18T19:12:18.252Z,20.27
2019-05-18T19:14:45.156Z,20.13
2019-05-18T19:17:12.019Z,18.60
2019-05-18T19:19:40.223Z,20.87
2019-05-18T19:22:07.417Z,18.13
2019-05-18T19:24:34.214Z,18.37
2019-05-18T19:27:01.279Z,20.07
2019-05-18T19:29:28.277Z,20.00
2019-05-18T19:31:55.192Z,18.90
2019-05-18T19:34:22.081Z,17.57
2019-05-18T19:36:49.039Z,19.10
2019-05-18T19:39:15.927Z,19.83
2019-05-18T19:41:42.727Z,21.53
2019-05-18T19:44:09.693Z,23.50
2019-05-18T19:46:36.522Z,19.93
2019-05-18T19:49:03.523Z,22.33
2019-05-18T19:51:30.456Z,19.87
2019-05-18T19:53:57.343Z,22.13
2019-05-18T19:56:24.203Z,20.80
2019-05-18T19:58:51.006Z,18.63
2019-05-18T20:01:17.923Z,18.37
2019-05-18T20:03:44.717Z,17.17
2019-05-18T20:06:11.525Z,19.07
2019-05-18T20:08:38.373Z,19.20
2019-05-18T20:11:05.382Z,18.30
2019-05-18T20:13:32.178Z,20.13
2019-05-18T20:15:59.089Z,19.10
2019-05-18T20:18:25.921Z,17.43
2019-05-18T20:20:52.811Z,18.77
2019-05-18T20:23:19.788Z,18.07
2019-05-18T20:25:46.674Z,15.73
2019-05-18T20:28:23.368Z,16.63
2019-05-18T20:30:42.324Z,17.67
2019-05-18T20:33:09.359Z,16.67
2019-05-18T20:35:36.173Z,15.87
2019-05-18T20:38:03.204Z,17.60
2019-05-18T20:40:30.198Z,16.43
2019-05-18T20:42:56.990Z,16.77
2019-05-18T20:45:23.827Z,18.30
2019-05-18T20:47:50.634Z,19.07
2019-05-18T20:50:17.643Z,23.10
2019-05-18T20:52:44.470Z,20.27
2019-05-18T20:55:11.516Z,21.07
2019-05-18T20:57:38.507Z,18.63
2019-05-18T21:00:06.430Z,18.17
2019-05-18T21:02:33.211Z,18.60
2019-05-18T21:05:00.120Z,21.03
2019-05-18T21:07:27.114Z,22.00
2019-05-18T21:09:53.931Z,22.43
2019-05-18T21:12:20.863Z,23.40
2019-05-18T21:14:47.681Z,19.00
2019-05-18T21:17:14.494Z,22.30
2019-05-18T21:19:41.308Z,23.90
2019-05-18T21:22:08.131Z,25.03
2019-05-18T21:24:34.948Z,22.57
2019-05-18T21:27:01.803Z,24.33
2019-05-18T21:29:28.706Z,23.10
2019-05-18T21:31:55.501Z,20.13
2019-05-18T21:34:22.458Z,22.20
2019-05-18T21:36:49.326Z,20.50
2019-05-18T21:39:16.314Z,19.50
2019-05-18T21:41:43.130Z,17.23
2019-05-18T21:44:10.158Z,14.27
2019-05-18T21:46:39.090Z,16.43
2019-05-18T21:49:06.006Z,16.33
2019-05-18T21:51:32.994Z,17.17
2019-05-18T21:53:59.797Z,16.00
2019-05-18T21:56:26.835Z,13.70
2019-05-18T21:58:53.637Z,10.60
2019-05-18T22:01:20.578Z,9.47
2019-05-18T22:03:48.267Z,10.23
2019-05-18T22:06:15.515Z,10.63
2019-05-18T22:08:42.584Z,9.83
2019-05-18T22:11:09.573Z,9.33
2019-05-18T22:13:36.463Z,10.97
2019-05-18T22:16:03.270Z,9.60
2019-05-18T22:18:30.288Z,9.53
2019-05-18T22:20:57.204Z,11.43
2019-05-18T22:23:24.367Z,12.07
2019-05-18T22:25:51.729Z,13.13
2019-05-18T22:28:18.652Z,12.63
2019-05-18T22:30:45.524Z,12.77
2019-05-18T22:33:12.576Z,14.00
2019-05-18T22:35:39.577Z,13.07
2019-05-18T22:38:06.510Z,11.43
2019-05-18T22:40:33.689Z,15.73
2019-05-18T22:43:00.733Z,14.33
2019-05-18T22:45:27.737Z,15.67
2019-05-18T22:47:54.790Z,14.03
2019-05-18T22:50:21.883Z,14.50
2019-05-18T22:52:48.898Z,14.70
2019-05-18T22:55:16.021Z,17.33
2019-05-18T22:57:42.944Z,16.13
2019-05-18T23:00:10.041Z,16.20
2019-05-18T23:02:36.954Z,14.20
2019-05-18T23:05:04.498Z,14.90
2019-05-18T23:07:31.463Z,14.37
2019-05-18T23:09:58.254Z,16.67
2019-05-18T23:12:25.159Z,15.33
2019-05-18T23:14:52.067Z,16.60
2019-05-18T23:17:19.158Z,16.57
2019-05-18T23:19:46.024Z,17.43
2019-05-18T23:22:13.071Z,18.77
2019-05-18T23:24:40.067Z,20.27
2019-05-18T23:27:06.989Z,18.10
2019-05-18T23:29:33.778Z,17.80
2019-05-18T23:32:00.574Z,14.83
2019-05-18T23:34:27.414Z,16.77
2019-05-18T23:36:54.326Z,18.13
2019-05-18T23:39:21.318Z,19.33
2019-05-18T23:41:48.173Z,19.07
2019-05-18T23:44:15.167Z,17.50
2019-05-18T23:46:42.066Z,13.63
2019-05-18T23:49:11.186Z,15.73
2019-05-18T23:51:37.872Z,15.17
2019-05-18T23:54:04.902Z,13.87
2019-05-18T23:56:32.005Z,17.40
2019-05-18T23:58:58.814Z,16.03
